Time;durP1;ratioP1;P1;durP2;ratioP2;P2;SDS_P1;SDS_P2;PMS_P1;PMS_P2;Temp;Humidity;BMP_temperature;BMP_pressure;BME280_temperature;BME280_humidity;BME280_pressure;Samples;Min_cycle;Max_cycle;Signal;HPM_P1;HPM_P2
2023/08/18 00:00:06;;;;;;;11.52;5.80;;;;;;;;;;4397069;32;68450;-58
2023/08/18 00:02:55;;;;;;;11.35;5.70;;;;;;;;;;4397230;32;67677;-58
2023/08/18 00:05:41;;;;;;;10.32;5.68;;;;;;;;;;4398217;32;72111;-58
2023/08/18 00:08:28;;;;;;;;;;;;;;;;;;4396999;32;67011;-59
2023/08/18 00:11:14;;;;;;;9.40;5.93;;;;;;;;;;4397669;32;67026;-58
2023/08/18 00:14:03;;;;;;;11.48;5.93;;;;;;;;;;4396982;32;67576;-58
2023/08/18 00:16:50;;;;;;;10.82;6.03;;;;;;;;;;4398247;32;72110;-59
2023/08/18 00:19:36;;;;;;;10.40;5.97;;;;;;;;;;4398290;32;65007;-58
2023/08/18 00:22:25;;;;;;;11.18;6.12;;;;;;;;;;4396512;32;65993;-58
2023/08/18 00:25:12;;;;;;;10.32;5.78;;;;;;;;;;4397247;32;59314;-58
2023/08/18 00:27:59;;;;;;;9.85;5.95;;;;;;;;;;4385925;32;71192;-58
2023/08/18 00:30:45;;;;;;;;;;;;;;;;;;4375897;32;69339;-58
2023/08/18 00:33:31;;;;;;;9.15;5.50;;;;;;;;;;4398292;32;68056;-59
2023/08/18 00:36:18;;;;;;;8.20;5.25;;;;;;;;;;4386772;32;72170;-58
2023/08/18 00:39:06;;;;;;;;;;;;;;;;;;4397292;32;70857;-58
2023/08/18 00:41:52;;;;;;;8.10;4.90;;;;;;;;;;4397092;32;69418;-58
2023/08/18 00:44:39;;;;;;;10.55;5.32;;;;;;;;;;4396920;32;67963;-58
2023/08/18 00:47:25;;;;;;;;;;;;;;;;;;4386263;32;71693;-58
2023/08/18 00:50:12;;;;;;;8.18;5.12;;;;;;;;;;4396884;32;66159;-58
2023/08/18 00:53:00;;;;;;;9.93;5.40;;;;;;;;;;4397360;32;66312;-58
2023/08/18 00:55:48;;;;;;;9.43;5.18;;;;;;;;;;4385812;32;60791;-58
2023/08/18 00:58:39;;;;;;;9.48;5.50;;;;;;;;;;4398037;32;70399;-58
2023/08/18 01:01:25;;;;;;;8.35;5.90;;;;;;;;;;4374755;32;69966;-58
2023/08/18 01:04:13;;;;;;;8.52;5.10;;;;;;;;;;4396872;32;66347;-58
2023/08/18 01:07:00;;;;;;;7.10;5.15;;;;;;;;;;4396994;32;59836;-58
2023/08/18 01:09:47;;;;;;;7.22;4.68;;;;;;;;;;4396412;32;70804;-58
2023/08/18 01:12:49;;;;;;;7.55;5.10;;;;;;;;;;4385817;32;68677;-58
2023/08/18 01:15:40;;;;;;;7.57;4.82;;;;;;;;;;4396863;32;68022;-58
2023/08/18 01:18:32;;;;;;;11.52;5.22;;;;;;;;;;4396437;32;71757;-59
2023/08/18 01:21:22;;;;;;;6.57;5.05;;;;;;;;;;4396430;32;64710;-59
2023/08/18 01:24:09;;;;;;;7.82;4.97;;;;;;;;;;4385691;32;67496;-58
2023/08/18 01:26:55;;;;;;;9.88;5.78;;;;;;;;;;4397786;32;59367;-59
2023/08/18 01:29:42;;;;;;;8.60;5.35;;;;;;;;;;4397706;32;71859;-59
2023/08/18 01:32:37;;;;;;;8.68;5.22;;;;;;;;;;4385634;32;65806;-58
2023/08/18 01:35:27;;;;;;;7.78;5.30;;;;;;;;;;4396216;32;67585;-59
2023/08/18 01:38:15;;;;;;;8.07;5.07;;;;;;;;;;4396380;32;60379;-59
2023/08/18 01:41:03;;;;;;;8.15;5.03;;;;;;;;;;4398767;32;70589;-57
2023/08/18 01:43:50;;;;;;;6.07;4.87;;;;;;;;;;4398863;32;69775;-58
2023/08/18 01:46:37;;;;;;;9.95;4.78;;;;;;;;;;4400219;32;66561;-59
2023/08/18 01:49:23;;;;;;;10.05;4.68;;;;;;;;;;4387509;32;71885;-58
2023/08/18 01:52:11;;;;;;;10.70;5.20;;;;;;;;;;4386853;32;71377;-59
2023/08/18 01:55:02;;;;;;;10.20;4.82;;;;;;;;;;4398509;32;69244;-58
2023/08/18 01:57:49;;;;;;;8.55;5.12;;;;;;;;;;4377482;32;67863;-58
2023/08/18 02:00:36;;;;;;;;;;;;;;;;;;4398823;32;71634;-58
2023/08/18 02:03:26;;;;;;;8.02;4.62;;;;;;;;;;4387266;32;66674;-58
2023/08/18 02:06:13;;;;;;;7.78;4.72;;;;;;;;;;4398011;32;68020;-58
2023/08/18 02:09:00;;;;;;;7.95;4.90;;;;;;;;;;4398556;32;59079;-58
2023/08/18 02:11:49;;;;;;;7.57;4.75;;;;;;;;;;4398420;32;69689;-58
2023/08/18 02:14:36;;;;;;;10.00;4.40;;;;;;;;;;4398373;32;69633;-58
2023/08/18 02:17:29;;;;;;;6.75;4.62;;;;;;;;;;4398464;32;67999;-59
2023/08/18 02:20:16;;;;;;;7.57;5.20;;;;;;;;;;4399932;32;59428;-58
2023/08/18 02:23:03;;;;;;;8.20;4.82;;;;;;;;;;4398443;32;70503;-59
2023/08/18 02:25:50;;;;;;;9.25;5.70;;;;;;;;;;4399090;32;69527;-58
2023/08/18 02:28:38;;;;;;;7.43;4.95;;;;;;;;;;4399970;32;67533;-58
2023/08/18 02:31:25;;;;;;;8.18;4.85;;;;;;;;;;4397591;32;72987;-58
2023/08/18 02:34:11;;;;;;;9.85;4.93;;;;;;;;;;4399349;32;66236;-59
2023/08/18 02:36:58;;;;;;;8.15;4.93;;;;;;;;;;4398403;32;67026;-58
2023/08/18 02:39:45;;;;;;;7.55;4.85;;;;;;;;;;4398328;32;59050;-57
2023/08/18 02:42:33;;;;;;;8.70;5.47;;;;;;;;;;4399213;32;71734;-59
2023/08/18 02:45:20;;;;;;;8.60;5.40;;;;;;;;;;4386701;32;66757;-57
2023/08/18 02:48:38;;;;;;;7.70;5.75;;;;;;;;;;4398185;32;68075;-58
2023/08/18 02:52:00;;;;;;;7.62;4.93;;;;;;;;;;4391335;32;58648;-59
2023/08/18 02:54:47;;;;;;;10.18;5.03;;;;;;;;;;4398933;32;70949;-59
2023/08/18 02:57:33;;;;;;;;;;;;;;;;;;4399479;32;68364;-58
2023/08/18 03:00:20;;;;;;;7.37;4.50;;;;;;;;;;4397590;32;67369;-58
2023/08/18 03:03:06;;;;;;;10.20;4.35;;;;;;;;;;4397169;32;73162;-58
2023/08/18 03:05:53;;;;;;;6.72;4.25;;;;;;;;;;4397644;32;65338;-59
2023/08/18 03:08:40;;;;;;;7.20;4.57;;;;;;;;;;4397371;32;68968;-57
2023/08/18 03:11:27;;;;;;;7.25;4.43;;;;;;;;;;4398987;32;67642;-58
2023/08/18 03:14:14;;;;;;;8.52;4.15;;;;;;;;;;4398733;32;70806;-58
2023/08/18 03:17:00;;;;;;;7.07;4.60;;;;;;;;;;4387224;32;64767;-58
2023/08/18 03:19:47;;;;;;;9.95;4.50;;;;;;;;;;4398936;32;66991;-58
2023/08/18 03:22:35;;;;;;;5.93;4.10;;;;;;;;;;4397963;32;59121;-58
2023/08/18 03:25:22;;;;;;;9.20;5.25;;;;;;;;;;4398818;32;69465;-58
2023/08/18 03:28:13;;;;;;;9.85;4.43;;;;;;;;;;4386160;32;69787;-58
2023/08/18 03:31:05;;;;;;;7.55;3.95;;;;;;;;;;4397693;32;67791;-58
2023/08/18 03:33:55;;;;;;;9.63;4.65;;;;;;;;;;4397153;32;60038;-58
2023/08/18 03:36:42;;;;;;;;;;;;;;;;;;4386549;32;70945;-59
2023/08/18 03:39:29;;;;;;;7.85;4.45;;;;;;;;;;4398776;32;69540;-58
2023/08/18 03:42:16;;;;;;;6.72;4.57;;;;;;;;;;4398661;32;67451;-58
2023/08/18 03:45:04;;;;;;;8.48;4.50;;;;;;;;;;4397135;32;71345;-59
2023/08/18 03:47:53;;;;;;;9.80;4.65;;;;;;;;;;4398676;32;66163;-58
2023/08/18 03:50:43;;;;;;;7.85;4.75;;;;;;;;;;4397237;32;67789;-58
2023/08/18 03:53:30;;;;;;;10.10;4.55;;;;;;;;;;4398200;32;60165;-59
2023/08/18 03:56:17;;;;;;;9.13;4.20;;;;;;;;;;4385836;32;70987;-59
2023/08/18 03:59:04;;;;;;;10.07;4.40;;;;;;;;;;4398480;32;66012;-58
2023/08/18 04:01:51;;;;;;;12.23;4.93;;;;;;;;;;4398199;32;67801;-59
2023/08/18 04:04:38;;;;;;;9.18;4.30;;;;;;;;;;4398688;32;59254;-58
2023/08/18 04:07:24;;;;;;;;;;;;;;;;;;4386683;32;69492;-58
2023/08/18 04:10:11;;;;;;;11.17;4.63;;;;;;;;;;4398763;32;69445;-59
2023/08/18 04:13:00;;;;;;;9.00;4.40;;;;;;;;;;4397257;32;67879;-59
2023/08/18 04:15:49;;;;;;;13.38;5.85;;;;;;;;;;4398045;32;71121;-58
2023/08/18 04:18:38;;;;;;;11.57;4.78;;;;;;;;;;4398526;32;66056;-57
2023/08/18 04:21:26;;;;;;;14.87;5.95;;;;;;;;;;4396298;32;69508;-58
2023/08/18 04:24:13;;;;;;;13.65;5.12;;;;;;;;;;4396905;32;68034;-58
2023/08/18 04:27:03;;;;;;;13.00;5.95;;;;;;;;;;4397006;32;70794;-58
2023/08/18 04:29:50;;;;;;;15.15;6.10;;;;;;;;;;4398213;32;65860;-58
2023/08/18 04:32:39;;;;;;;14.77;6.28;;;;;;;;;;4386133;32;68130;-58
2023/08/18 04:35:29;;;;;;;11.95;5.75;;;;;;;;;;4385541;32;61361;-58
2023/08/18 04:38:16;;;;;;;9.13;5.93;;;;;;;;;;4397828;32;70517;-57
2023/08/18 04:41:04;;;;;;;10.63;5.30;;;;;;;;;;4397907;32;68844;-58
2023/08/18 04:43:52;;;;;;;8.93;5.18;;;;;;;;;;4398049;32;66679;-59
2023/08/18 04:46:41;;;;;;;10.45;5.00;;;;;;;;;;4398413;32;60305;-59
2023/08/18 04:49:29;;;;;;;7.45;4.80;;;;;;;;;;4386615;32;69755;-59
2023/08/18 04:52:20;;;;;;;8.70;4.72;;;;;;;;;;4396277;32;68902;-58
2023/08/18 04:55:07;;;;;;;8.32;5.20;;;;;;;;;;4397778;32;67763;-58
2023/08/18 04:57:55;;;;;;;9.68;5.20;;;;;;;;;;4397654;32;71752;-59
2023/08/18 05:00:46;;;;;;;7.35;5.20;;;;;;;;;;4396627;32;66042;-58
2023/08/18 05:03:33;;;;;;;8.75;5.62;;;;;;;;;;4396529;32;67284;-58
2023/08/18 05:06:20;;;;;;;14.38;6.72;;;;;;;;;;4397931;32;59256;-59
2023/08/18 05:09:07;;;;;;;15.38;7.35;;;;;;;;;;4397575;32;70538;-58
2023/08/18 05:11:53;;;;;;;16.15;7.22;;;;;;;;;;4397809;32;64784;-58
2023/08/18 05:14:40;;;;;;;;;;;;;;;;;;4399448;32;68340;-58
2023/08/18 05:17:27;;;;;;;16.33;6.07;;;;;;;;;;4399134;32;59306;-58
2023/08/18 05:20:13;;;;;;;12.77;6.37;;;;;;;;;;4400319;32;70589;-58
2023/08/18 05:23:01;;;;;;;14.60;6.85;;;;;;;;;;4400199;32;69413;-59
2023/08/18 05:25:48;;;;;;;13.32;7.03;;;;;;;;;;4400269;32;67739;-59
2023/08/18 05:28:37;;;;;;;8.77;6.35;;;;;;;;;;4400133;32;70813;-58
2023/08/18 05:31:23;;;;;;;16.92;7.95;;;;;;;;;;4399367;32;65078;-58
2023/08/18 05:34:10;;;;;;;15.98;6.72;;;;;;;;;;4400447;32;67119;-58
2023/08/18 05:36:56;;;;;;;;;;;;;;;;;;4399320;32;67928;-58
2023/08/18 05:39:43;;;;;;;11.12;6.85;;;;;;;;;;4400450;32;71596;-58
2023/08/18 05:42:30;;;;;;;14.18;6.60;;;;;;;;;;4399049;32;66252;-58
2023/08/18 05:45:17;;;;;;;13.65;6.55;;;;;;;;;;4398349;32;68183;-58
2023/08/18 05:48:04;;;;;;;11.30;5.85;;;;;;;;;;4400183;32;60264;-59
2023/08/18 05:50:51;;;;;;;13.10;6.80;;;;;;;;;;4399846;32;70743;-59
2023/08/18 05:53:37;;;;;;;14.85;8.70;;;;;;;;;;4399507;32;68258;-59
2023/08/18 05:56:24;;;;;;;7.78;5.00;;;;;;;;;;4398022;32;67113;-59
2023/08/18 05:59:11;;;;;;;11.73;5.93;;;;;;;;;;4398903;32;71927;-57
2023/08/18 06:01:58;;;;;;;12.37;6.20;;;;;;;;;;4399720;32;71055;-59
2023/08/18 06:04:45;;;;;;;11.52;5.50;;;;;;;;;;4398390;32;69359;-59
2023/08/18 06:07:31;;;;;;;;;;;;;;;;;;4400273;32;67395;-58
2023/08/18 06:10:17;;;;;;;9.40;4.87;;;;;;;;;;4399789;32;72325;-58
2023/08/18 06:13:04;;;;;;;;;;;;;;;;;;4400395;32;65852;-57
2023/08/18 06:15:52;;;;;;;11.27;5.87;;;;;;;;;;4387496;32;68259;-57
2023/08/18 06:18:38;;;;;;;10.38;6.15;;;;;;;;;;4399917;32;59003;-57
2023/08/18 06:21:25;;;;;;;8.18;5.03;;;;;;;;;;4399411;32;70567;-59
2023/08/18 06:24:11;;;;;;;;;;;;;;;;;;4398610;32;69289;-58
2023/08/18 06:26:58;;;;;;;9.47;5.53;;;;;;;;;;4399831;32;68313;-58
2023/08/18 06:29:44;;;;;;;11.75;5.72;;;;;;;;;;4388137;32;59112;-58
2023/08/18 06:32:31;;;;;;;11.50;5.25;;;;;;;;;;4397676;32;69222;-58
2023/08/18 06:35:17;;;;;;;12.82;5.07;;;;;;;;;;4397576;32;68875;-58
2023/08/18 06:38:04;;;;;;;8.07;5.07;;;;;;;;;;4399603;32;67444;-59
2023/08/18 06:40:51;;;;;;;10.40;5.28;;;;;;;;;;4399277;32;71793;-59
2023/08/18 06:43:40;;;;;;;8.23;4.57;;;;;;;;;;4399474;32;64819;-58
2023/08/18 06:46:29;;;;;;;10.50;4.78;;;;;;;;;;4399370;32;66965;-58
2023/08/18 06:49:15;;;;;;;7.28;4.12;;;;;;;;;;4399075;32;67554;-60
2023/08/18 06:52:02;;;;;;;9.98;4.62;;;;;;;;;;4398679;32;70782;-58
2023/08/18 06:54:49;;;;;;;10.82;4.12;;;;;;;;;;4399350;32;65026;-57
2023/08/18 06:57:35;;;;;;;10.38;4.25;;;;;;;;;;4399238;32;68173;-58
2023/08/18 07:00:24;;;;;;;11.40;4.57;;;;;;;;;;4399390;32;60342;-59
2023/08/18 07:03:10;;;;;;;6.90;4.07;;;;;;;;;;4397910;32;69430;-58
2023/08/18 07:05:57;;;;;;;10.13;4.22;;;;;;;;;;4399346;32;68527;-58
2023/08/18 07:08:44;;;;;;;8.35;4.45;;;;;;;;;;4398122;32;67772;-58
2023/08/18 07:11:31;;;;;;;9.05;4.95;;;;;;;;;;4398224;32;72044;-58
2023/08/18 07:14:17;;;;;;;8.40;4.72;;;;;;;;;;4397686;32;70387;-58
2023/08/18 07:17:04;;;;;;;6.57;4.12;;;;;;;;;;4397380;32;69036;-58
2023/08/18 07:19:50;;;;;;;;;;;;;;;;;;4399509;32;67604;-59
2023/08/18 07:22:37;;;;;;;9.77;4.40;;;;;;;;;;4399149;32;71114;-59
2023/08/18 07:25:24;;;;;;;8.40;4.35;;;;;;;;;;4399076;32;64705;-59
2023/08/18 07:28:11;;;;;;;10.60;4.30;;;;;;;;;;4398848;32;68210;-59
2023/08/18 07:31:03;;;;;;;7.82;3.95;;;;;;;;;;4397648;32;59200;-58
2023/08/18 07:33:49;;;;;;;9.73;3.80;;;;;;;;;;4398528;32;70764;-58
2023/08/18 07:36:36;;;;;;;6.07;3.92;;;;;;;;;;4395998;32;70972;-59
2023/08/18 07:39:25;;;;;;;8.13;4.40;;;;;;;;;;4396894;32;68283;-59
2023/08/18 07:42:11;;;;;;;6.25;3.50;;;;;;;;;;4398807;32;60145;-58
2023/08/18 07:44:58;;;;;;;10.10;5.30;;;;;;;;;;4398707;32;69643;-59
2023/08/18 07:47:45;;;;;;;;;;;;;;;;;;4398828;32;68429;-58
2023/08/18 07:50:32;;;;;;;;;;;;;;;;;;4399130;32;67923;-58
2023/08/18 07:53:18;;;;;;;10.98;6.03;;;;;;;;;;4396849;32;71998;-58
2023/08/18 07:56:05;;;;;;;13.10;5.57;;;;;;;;;;4396555;32;66491;-58
2023/08/18 07:58:51;;;;;;;14.10;5.93;;;;;;;;;;4398428;32;68002;-58
2023/08/18 08:01:38;;;;;;;7.82;5.72;;;;;;;;;;4398804;32;59343;-57
2023/08/18 08:04:25;;;;;;;10.10;5.35;;;;;;;;;;4396997;32;70707;-58
2023/08/18 08:07:12;;;;;;;8.40;4.87;;;;;;;;;;4397110;32;66440;-57
2023/08/18 08:10:02;;;;;;;9.52;5.37;;;;;;;;;;4398478;32;66855;-58
2023/08/18 08:12:49;;;;;;;6.80;3.87;;;;;;;;;;4396771;32;60740;-57
2023/08/18 08:15:36;;;;;;;8.48;4.15;;;;;;;;;;4397775;32;70598;-59
2023/08/18 08:18:22;;;;;;;;;;;;;;;;;;4396775;32;68382;-58
2023/08/18 08:21:09;;;;;;;7.60;4.25;;;;;;;;;;4398052;32;67807;-58
2023/08/18 08:23:55;;;;;;;;;;;;;;;;;;4396806;32;72001;-59
2023/08/18 08:26:42;;;;;;;7.18;4.47;;;;;;;;;;4398415;32;65863;-58
2023/08/18 08:29:31;;;;;;;8.75;4.28;;;;;;;;;;4398124;32;69557;-59
2023/08/18 08:32:18;;;;;;;11.75;4.95;;;;;;;;;;4397850;32;68227;-59
2023/08/18 08:35:07;;;;;;;7.00;4.30;;;;;;;;;;4395978;32;71365;-58
2023/08/18 08:37:54;;;;;;;5.57;3.97;;;;;;;;;;4398055;32;65753;-58
2023/08/18 08:40:41;;;;;;;;;;;;;;;;;;4398329;32;67890;-59
2023/08/18 08:43:28;;;;;;;5.90;3.10;;;;;;;;;;4397260;32;58659;-59
2023/08/18 08:46:15;;;;;;;6.75;3.40;;;;;;;;;;4398006;32;70645;-58
2023/08/18 08:49:05;;;;;;;6.80;2.90;;;;;;;;;;4386077;32;69469;-58
2023/08/18 08:51:52;;;;;;;6.30;3.35;;;;;;;;;;4396102;32;67848;-58
2023/08/18 08:54:50;;;;;;;4.05;2.90;;;;;;;;;;4396739;32;59555;-59
2023/08/18 08:57:40;;;;;;;6.37;3.03;;;;;;;;;;4397497;32;70146;-59
2023/08/18 09:00:27;;;;;;;4.10;2.87;;;;;;;;;;4397599;32;69377;-58
2023/08/18 09:03:16;;;;;;;5.03;2.47;;;;;;;;;;4385921;32;66709;-58
2023/08/18 09:06:03;;;;;;;5.43;2.65;;;;;;;;;;4397895;32;71628;-58
2023/08/18 09:08:49;;;;;;;2.97;2.33;;;;;;;;;;4396516;32;65936;-59
2023/08/18 09:11:39;;;;;;;6.22;2.90;;;;;;;;;;4396352;32;67833;-58
2023/08/18 09:14:28;;;;;;;5.72;3.37;;;;;;;;;;4397850;32;60420;-58
2023/08/18 09:17:15;;;;;;;3.35;2.45;;;;;;;;;;4384845;32;71461;-59
2023/08/18 09:20:02;;;;;;;3.97;2.70;;;;;;;;;;4396478;32;66447;-58
2023/08/18 09:22:56;;;;;;;3.58;2.67;;;;;;;;;;4396634;32;67068;-58
2023/08/18 09:25:45;;;;;;;3.28;2.30;;;;;;;;;;4397722;32;60130;-58
2023/08/18 09:28:34;;;;;;;4.55;2.53;;;;;;;;;;4397495;32;69823;-58
2023/08/18 09:31:21;;;;;;;3.95;2.47;;;;;;;;;;4398102;32;69431;-59
2023/08/18 09:34:09;;;;;;;3.95;2.30;;;;;;;;;;4397596;32;67758;-58
2023/08/18 09:36:56;;;;;;;4.53;2.50;;;;;;;;;;4397162;32;71708;-58
2023/08/18 09:39:43;;;;;;;3.95;2.60;;;;;;;;;;4385966;32;65837;-59
2023/08/18 09:42:29;;;;;;;3.72;2.33;;;;;;;;;;4384939;32;69148;-58
2023/08/18 09:45:16;;;;;;;3.22;2.40;;;;;;;;;;4395992;32;67033;-58
2023/08/18 09:48:03;;;;;;;3.83;2.37;;;;;;;;;;4395405;32;73578;-59
2023/08/18 09:50:53;;;;;;;4.03;2.45;;;;;;;;;;4396183;32;65854;-58
2023/08/18 09:53:50;;;;;;;3.40;2.62;;;;;;;;;;4384618;32;67467;-59
2023/08/18 09:56:39;;;;;;;2.42;2.05;;;;;;;;;;4397574;32;60250;-58
2023/08/18 09:59:38;;;;;;;3.97;2.20;;;;;;;;;;4396445;32;69579;-58
2023/08/18 10:02:34;;;;;;;3.85;2.33;;;;;;;;;;4398684;32;68294;-58
2023/08/18 10:05:24;;;;;;;5.15;2.60;;;;;;;;;;4398740;32;66762;-58
2023/08/18 10:08:11;;;;;;;4.10;2.20;;;;;;;;;;4399241;32;59153;-58
2023/08/18 10:10:57;;;;;;;3.47;2.33;;;;;;;;;;4400110;32;69737;-58
2023/08/18 10:16:33;;;;;;;4.30;2.62;;;;;;;;;;3847234;37;43865;-59
2023/08/18 10:19:48;;;;;;;4.35;2.30;;;;;;;;;;4409780;32;60175;-58
2023/08/18 10:22:43;;;;;;;4.32;2.62;;;;;;;;;;4410710;32;71887;-58
2023/08/18 10:25:31;;;;;;;3.72;2.30;;;;;;;;;;4409678;32;68386;-58
2023/08/18 10:28:19;;;;;;;3.35;2.47;;;;;;;;;;4410826;32;68008;-58
2023/08/18 10:31:11;;;;;;;5.62;2.42;;;;;;;;;;4409312;32;71909;-58
2023/08/18 10:34:01;;;;;;;3.17;2.65;;;;;;;;;;4399629;32;64712;-58
2023/08/18 10:36:48;;;;;;;4.60;2.78;;;;;;;;;;4409525;32;66198;-59
2023/08/18 10:39:40;;;;;;;5.85;2.62;;;;;;;;;;4410854;32;60252;-58
2023/08/18 10:42:34;;;;;;;4.43;2.50;;;;;;;;;;4409412;32;71633;-58
2023/08/18 10:45:27;;;;;;;5.35;2.50;;;;;;;;;;4409429;32;65788;-59
2023/08/18 10:48:14;;;;;;;6.80;2.80;;;;;;;;;;4410646;32;67666;-58
2023/08/18 10:51:05;;;;;;;3.65;2.42;;;;;;;;;;4409594;32;60258;-58
2023/08/18 10:54:00;;;;;;;5.32;2.42;;;;;;;;;;4395021;32;70966;-58
2023/08/18 10:56:46;;;;;;;3.55;2.60;;;;;;;;;;4393260;32;72375;-58
2023/08/18 10:59:33;;;;;;;4.35;2.50;;;;;;;;;;4393856;32;66888;-58
2023/08/18 11:02:19;;;;;;;3.90;2.50;;;;;;;;;;4394873;32;71676;-59
2023/08/18 11:05:07;;;;;;;3.20;2.35;;;;;;;;;;4395513;32;65023;-58
2023/08/18 11:07:54;;;;;;;5.47;2.70;;;;;;;;;;4393704;32;68635;-58
2023/08/18 11:10:45;;;;;;;3.72;2.60;;;;;;;;;;4393239;32;67508;-58
2023/08/18 11:13:31;;;;;;;3.85;2.60;;;;;;;;;;4393495;32;71521;-58
2023/08/18 11:16:17;;;;;;;4.37;2.37;;;;;;;;;;4384177;32;67113;-59
2023/08/18 11:19:07;;;;;;;6.15;2.70;;;;;;;;;;4393536;32;67450;-59
2023/08/18 11:21:54;;;;;;;4.30;2.55;;;;;;;;;;4383153;32;60636;-59
2023/08/18 11:24:44;;;;;;;4.72;2.50;;;;;;;;;;4393593;32;70601;-58
2023/08/18 11:27:34;;;;;;;3.62;2.45;;;;;;;;;;4384513;32;69600;-58
2023/08/18 11:30:21;;;;;;;3.45;2.40;;;;;;;;;;4382783;32;68069;-58
2023/08/18 11:33:12;;;;;;;6.62;2.55;;;;;;;;;;4372688;32;59831;-58
2023/08/18 11:35:58;;;;;;;5.18;2.30;;;;;;;;;;4383071;32;70334;-58
2023/08/18 11:38:44;;;;;;;6.87;2.55;;;;;;;;;;4384589;32;68301;-58
2023/08/18 11:41:42;;;;;;;3.15;2.45;;;;;;;;;;4382727;32;65585;-59
2023/08/18 11:44:32;;;;;;;5.28;2.83;;;;;;;;;;4383232;32;70862;-58
2023/08/18 11:47:20;;;;;;;3.37;2.20;;;;;;;;;;4383594;32;65799;-58
2023/08/18 11:50:07;;;;;;;3.28;2.62;;;;;;;;;;4386777;32;67581;-58
2023/08/18 11:52:54;;;;;;;4.10;2.58;;;;;;;;;;4373342;32;60338;-59
2023/08/18 11:55:44;;;;;;;5.07;2.70;;;;;;;;;;4384197;32;70534;-58
2023/08/18 11:58:36;;;;;;;5.53;2.60;;;;;;;;;;4383038;32;65729;-58
2023/08/18 12:01:23;;;;;;;5.00;2.65;;;;;;;;;;4383055;32;66453;-58
2023/08/18 12:04:12;;;;;;;6.87;2.60;;;;;;;;;;4383116;32;60423;-59
2023/08/18 12:07:00;;;;;;;4.35;2.40;;;;;;;;;;4384012;32;70233;-58
2023/08/18 12:09:46;;;;;;;6.35;2.78;;;;;;;;;;4384145;32;68426;-58
2023/08/18 12:12:33;;;;;;;4.62;2.67;;;;;;;;;;4382308;32;68663;-59
2023/08/18 12:15:23;;;;;;;3.40;2.53;;;;;;;;;;4381598;32;72339;-58
2023/08/18 12:18:12;;;;;;;3.55;2.65;;;;;;;;;;4382739;32;65063;-58
2023/08/18 12:21:01;;;;;;;3.00;2.22;;;;;;;;;;4383013;32;67758;-58
2023/08/18 12:23:47;;;;;;;5.15;2.37;;;;;;;;;;4383835;32;67821;-58
2023/08/18 12:26:37;;;;;;;4.93;2.50;;;;;;;;;;4383900;32;70787;-58
2023/08/18 12:29:23;;;;;;;4.05;2.47;;;;;;;;;;4382683;32;64764;-58
2023/08/18 12:32:10;;;;;;;3.55;2.47;;;;;;;;;;4383843;32;67583;-58
2023/08/18 12:34:59;;;;;;;3.55;2.53;;;;;;;;;;4372029;32;60309;-58
2023/08/18 12:37:49;;;;;;;5.12;2.45;;;;;;;;;;4381800;32;70518;-59
2023/08/18 12:40:37;;;;;;;3.42;2.30;;;;;;;;;;4381888;32;68846;-58
2023/08/18 12:43:24;;;;;;;4.57;2.78;;;;;;;;;;4383644;32;67865;-58
2023/08/18 12:46:10;;;;;;;4.22;2.60;;;;;;;;;;4382750;32;60091;-58
2023/08/18 12:48:58;;;;;;;4.28;2.65;;;;;;;;;;4381780;32;70846;-58
2023/08/18 12:51:47;;;;;;;4.87;2.72;;;;;;;;;;4382257;32;69142;-59
2023/08/18 12:54:33;;;;;;;4.85;2.70;;;;;;;;;;4383577;32;66456;-59
2023/08/18 12:57:20;;;;;;;4.40;2.45;;;;;;;;;;4381613;32;72554;-57
2023/08/18 13:00:07;;;;;;;3.10;2.35;;;;;;;;;;4382489;32;66344;-59
2023/08/18 13:02:53;;;;;;;4.03;2.55;;;;;;;;;;4383502;32;67818;-58
2023/08/18 13:05:43;;;;;;;5.05;2.60;;;;;;;;;;4382421;32;59071;-58
2023/08/18 13:08:30;;;;;;;6.03;2.40;;;;;;;;;;4383858;32;70351;-57
2023/08/18 13:11:16;;;;;;;3.28;2.47;;;;;;;;;;4382985;32;65918;-58
2023/08/18 13:14:04;;;;;;;3.08;2.50;;;;;;;;;;4383722;32;66869;-60
2023/08/18 13:16:51;;;;;;;4.72;2.55;;;;;;;;;;4382222;32;60341;-59
2023/08/18 13:19:37;;;;;;;3.22;2.60;;;;;;;;;;4383183;32;70248;-59
2023/08/18 13:22:26;;;;;;;5.30;2.92;;;;;;;;;;4381349;32;70290;-58
2023/08/18 13:25:14;;;;;;;2.58;2.20;;;;;;;;;;4381934;32;67741;-58
2023/08/18 13:28:03;;;;;;;4.78;2.80;;;;;;;;;;4381764;32;71612;-58
2023/08/18 13:30:52;;;;;;;5.12;2.83;;;;;;;;;;4381917;32;66016;-58
2023/08/18 13:33:38;;;;;;;4.75;2.30;;;;;;;;;;4383320;32;66276;-58
2023/08/18 13:36:25;;;;;;;4.53;3.05;;;;;;;;;;4382927;32;67217;-60
2023/08/18 13:39:12;;;;;;;5.50;2.92;;;;;;;;;;4370576;32;70106;-58
2023/08/18 13:41:58;;;;;;;3.80;2.60;;;;;;;;;;4360151;32;67310;-59
2023/08/18 13:44:45;;;;;;;5.22;2.65;;;;;;;;;;4381215;32;68194;-59
2023/08/18 13:47:32;;;;;;;3.37;2.45;;;;;;;;;;4370775;32;61008;-59
2023/08/18 13:50:19;;;;;;;5.87;2.70;;;;;;;;;;4382531;32;69558;-59
2023/08/18 13:53:11;;;;;;;3.72;2.50;;;;;;;;;;4381298;32;68416;-58
2023/08/18 13:55:58;;;;;;;4.75;3.12;;;;;;;;;;4381551;32;67832;-59
2023/08/18 13:58:45;;;;;;;6.30;2.75;;;;;;;;;;4383160;32;72110;-59
2023/08/18 14:01:32;;;;;;;4.72;2.58;;;;;;;;;;4382815;32;70525;-59
2023/08/18 14:04:19;;;;;;;4.18;2.67;;;;;;;;;;4388784;32;69526;-59
2023/08/18 14:07:06;;;;;;;3.15;2.47;;;;;;;;;;4384592;32;66608;-58
2023/08/18 14:09:53;;;;;;;5.05;2.80;;;;;;;;;;4381303;32;71419;-58
2023/08/18 14:12:48;;;;;;;7.00;3.28;;;;;;;;;;4383051;32;64900;-58
2023/08/18 14:15:37;;;;;;;6.85;3.03;;;;;;;;;;4369864;32;67998;-57
2023/08/18 14:18:26;;;;;;;6.18;2.70;;;;;;;;;;4371297;32;60170;-58
2023/08/18 14:21:13;;;;;;;5.93;3.28;;;;;;;;;;4380671;32;70963;-58
2023/08/18 14:24:00;;;;;;;3.97;2.67;;;;;;;;;;4382645;32;69204;-58
2023/08/18 14:26:47;;;;;;;3.62;2.55;;;;;;;;;;4382415;32;68021;-58
2023/08/18 14:29:34;;;;;;;5.25;2.80;;;;;;;;;;4381604;32;59161;-58
2023/08/18 14:32:21;;;;;;;5.80;2.83;;;;;;;;;;4369962;32;69202;-58
2023/08/18 14:35:08;;;;;;;6.15;3.65;;;;;;;;;;4370571;32;69183;-58
2023/08/18 14:37:57;;;;;;;6.20;3.03;;;;;;;;;;4370334;32;67391;-58
2023/08/18 14:40:46;;;;;;;8.57;3.15;;;;;;;;;;4380469;32;72460;-58
2023/08/18 14:43:35;;;;;;;6.65;3.10;;;;;;;;;;4381203;32;65457;-58
2023/08/18 14:46:22;;;;;;;4.65;3.00;;;;;;;;;;4369988;32;67582;-59
2023/08/18 14:49:10;;;;;;;6.07;3.12;;;;;;;;;;4382633;32;60365;-58
2023/08/18 14:51:59;;;;;;;6.43;3.45;;;;;;;;;;4382060;32;70821;-58
2023/08/18 14:54:47;;;;;;;6.57;3.53;;;;;;;;;;4381182;32;65670;-59
2023/08/18 14:57:35;;;;;;;8.57;3.72;;;;;;;;;;4382194;32;67954;-58
2023/08/18 15:00:22;;;;;;;8.23;3.90;;;;;;;;;;4382483;32;59190;-59
2023/08/18 15:03:08;;;;;;;11.20;3.90;;;;;;;;;;4384560;32;69492;-58
2023/08/18 15:05:58;;;;;;;6.93;3.75;;;;;;;;;;4384798;32;68154;-58
2023/08/18 15:08:46;;;;;;;7.37;3.83;;;;;;;;;;4372120;32;68815;-59
2023/08/18 15:11:33;;;;;;;9.38;4.30;;;;;;;;;;4373276;32;72060;-59
2023/08/18 15:14:20;;;;;;;8.63;4.10;;;;;;;;;;4384358;32;70402;-59
2023/08/18 15:17:07;;;;;;;9.63;4.55;;;;;;;;;;4384502;32;68196;-58
2023/08/18 15:19:53;;;;;;;;;;;;;;;;;;4383058;32;70034;-58
2023/08/18 15:22:40;;;;;;;9.15;4.32;;;;;;;;;;4383439;32;71303;-59
2023/08/18 15:25:27;;;;;;;9.98;5.43;;;;;;;;;;4384621;32;66214;-58
2023/08/18 15:28:13;;;;;;;9.35;5.05;;;;;;;;;;4384594;32;68133;-59
2023/08/18 15:31:02;;;;;;;11.10;5.43;;;;;;;;;;4383508;32;60102;-57
2023/08/18 15:33:52;;;;;;;10.95;5.53;;;;;;;;;;4383253;32;69492;-58
2023/08/18 15:36:39;;;;;;;12.57;6.68;;;;;;;;;;4383079;32;68414;-58
2023/08/18 15:39:25;;;;;;;11.27;5.90;;;;;;;;;;4384251;32;67608;-57
2023/08/18 15:42:12;;;;;;;11.73;6.18;;;;;;;;;;4384851;32;59898;-58
2023/08/18 15:44:59;;;;;;;12.07;6.45;;;;;;;;;;4382610;32;70308;-58
2023/08/18 15:47:46;;;;;;;14.35;6.55;;;;;;;;;;4384138;32;69549;-58
2023/08/18 15:50:32;;;;;;;12.00;6.55;;;;;;;;;;4384420;32;67687;-58
2023/08/18 15:53:19;;;;;;;;;;;;;;;;;;4383066;32;70834;-59
2023/08/18 15:56:05;;;;;;;8.73;5.57;;;;;;;;;;4384390;32;66711;-59
2023/08/18 15:58:52;;;;;;;11.75;6.22;;;;;;;;;;4384409;32;67767;-58
2023/08/18 16:01:39;;;;;;;13.98;6.72;;;;;;;;;;4382626;32;59920;-58
2023/08/18 16:04:26;;;;;;;13.32;5.85;;;;;;;;;;4382628;32;71924;-59
2023/08/18 16:07:12;;;;;;;9.25;4.60;;;;;;;;;;4384288;32;64796;-58
2023/08/18 16:10:02;;;;;;;11.35;5.82;;;;;;;;;;4383084;32;67080;-58
2023/08/18 16:12:52;;;;;;;11.18;5.85;;;;;;;;;;4383994;32;59777;-59
2023/08/18 16:15:42;;;;;;;10.50;5.00;;;;;;;;;;4382279;32;70767;-58
2023/08/18 16:18:29;;;;;;;10.32;5.72;;;;;;;;;;4384202;32;69622;-58
2023/08/18 16:21:16;;;;;;;9.90;5.32;;;;;;;;;;4382811;32;66620;-58
2023/08/18 16:24:06;;;;;;;12.75;5.70;;;;;;;;;;4383830;32;71577;-58
2023/08/18 16:26:58;;;;;;;15.50;5.35;;;;;;;;;;4384155;32;65121;-58
2023/08/18 16:29:47;;;;;;;13.62;5.12;;;;;;;;;;4383745;32;68205;-59
2023/08/18 16:32:36;;;;;;;9.18;5.00;;;;;;;;;;4382450;32;67630;-58
2023/08/18 16:35:22;;;;;;;14.80;5.80;;;;;;;;;;4382472;32;71811;-58
2023/08/18 16:38:09;;;;;;;10.88;6.07;;;;;;;;;;4382379;32;65781;-57
2023/08/18 16:40:56;;;;;;;15.65;7.05;;;;;;;;;;4371733;32;66944;-58
2023/08/18 16:43:45;;;;;;;11.27;6.75;;;;;;;;;;4382568;32;59074;-58
2023/08/18 16:46:34;;;;;;;15.05;7.55;;;;;;;;;;4383669;32;69790;-58
2023/08/18 16:49:20;;;;;;;15.43;7.97;;;;;;;;;;4371205;32;67603;-59
2023/08/18 16:52:09;;;;;;;16.33;7.97;;;;;;;;;;4382038;32;66591;-58